createdAt,value
2018-08-09T00:00:03.215Z,1011.18
2018-08-09T00:01:12.623Z,1011.2
2018-08-09T00:02:22.590Z,1011.2
2018-08-09T00:03:32.025Z,1011.21
2018-08-09T00:04:41.439Z,1011.26
2018-08-09T00:05:50.584Z,1011.23
2018-08-09T00:07:00.250Z,1011.23
2018-08-09T00:08:09.934Z,1011.22
2018-08-09T00:09:18.826Z,1011.23
2018-08-09T00:10:28.493Z,1011.24
2018-08-09T00:11:37.895Z,1011.18
2018-08-09T00:12:47.357Z,1011.18
2018-08-09T00:13:56.510Z,1011.16
2018-08-09T00:15:05.924Z,1011.17
2018-08-09T00:16:15.336Z,1011.11
2018-08-09T00:17:24.505Z,1011.13
2018-08-09T00:18:34.172Z,1011.09
2018-08-09T00:19:43.578Z,1011.09
2018-08-09T00:20:52.982Z,1011
2018-08-09T00:22:02.676Z,1010.96
2018-08-09T00:23:12.081Z,1010.98
2018-08-09T00:24:21.244Z,1010.94
2018-08-09T00:25:30.922Z,1010.98
2018-08-09T00:26:40.328Z,1011.03
2018-08-09T00:27:49.499Z,1011.02
2018-08-09T00:28:58.913Z,1011.08
2018-08-09T00:30:08.821Z,1011.07
2018-08-09T00:31:17.968Z,1011.07
2018-08-09T00:32:27.114Z,1011.05
2018-08-09T00:33:36.523Z,1011.06
2018-08-09T00:34:45.934Z,1010.97
2018-08-09T00:35:55.093Z,1010.99
2018-08-09T00:37:04.492Z,1011
2018-08-09T00:38:13.894Z,1010.98
2018-08-09T00:39:22.794Z,1011.01
2018-08-09T00:40:32.229Z,1011.06
2018-08-09T00:41:41.384Z,1011.02
2018-08-09T00:42:50.313Z,1011.03
2018-08-09T00:43:59.474Z,1011.05
2018-08-09T00:45:08.884Z,1010.98
2018-08-09T00:46:18.546Z,1011
2018-08-09T00:47:27.944Z,1010.99
2018-08-09T00:48:36.583Z,1011
2018-08-09T00:49:46.259Z,1010.96
2018-08-09T00:50:55.717Z,1010.94
2018-08-09T00:52:05.386Z,1010.92
2018-08-09T00:53:14.285Z,1010.93
2018-08-09T00:54:23.701Z,1010.93
2018-08-09T00:55:33.379Z,1010.91
2018-08-09T00:56:42.265Z,1010.87
2018-08-09T00:57:51.667Z,1010.83
2018-08-09T00:59:00.827Z,1010.86
2018-08-09T01:00:10.758Z,1010.87
2018-08-09T01:01:19.921Z,1010.86
2018-08-09T01:02:29.579Z,1010.88
2018-08-09T01:03:38.992Z,1010.84
2018-08-09T01:04:48.662Z,1010.84
2018-08-09T01:05:57.820Z,1010.83
2018-08-09T01:07:07.247Z,1010.77
2018-08-09T01:08:16.657Z,1010.78
2018-08-09T01:09:25.564Z,1010.74
2018-08-09T01:10:34.711Z,1010.71
2018-08-09T01:11:43.885Z,1010.71
2018-08-09T01:12:53.034Z,1010.67
2018-08-09T01:14:02.440Z,1010.66
2018-08-09T01:15:11.860Z,1010.64
2018-08-09T01:16:21.528Z,1010.59
2018-08-09T01:17:31.448Z,1010.57
2018-08-09T01:18:40.851Z,1010.58
2018-08-09T01:19:49.492Z,1010.5
2018-08-09T01:20:58.643Z,1010.51
2018-08-09T01:22:07.785Z,1010.53
2018-08-09T01:23:16.954Z,1010.55
2018-08-09T01:24:26.372Z,1010.61
2018-08-09T01:25:36.279Z,1010.63
2018-08-09T01:26:45.679Z,1010.63
2018-08-09T01:27:55.358Z,1010.65
2018-08-09T01:29:04.504Z,1010.63
2018-08-09T01:30:13.426Z,1010.64
2018-08-09T01:31:22.592Z,1010.59
2018-08-09T01:32:31.740Z,1010.59
2018-08-09T01:33:41.208Z,1010.58
2018-08-09T01:34:50.904Z,1010.67
2018-08-09T01:36:00.050Z,1010.68
2018-08-09T01:37:09.463Z,1010.65
2018-08-09T01:38:18.869Z,1010.67
2018-08-09T01:39:28.277Z,1010.69
2018-08-09T01:40:37.685Z,1010.69
2018-08-09T01:41:46.851Z,1010.68
2018-08-09T01:42:56.272Z,1010.65
2018-08-09T01:44:05.433Z,1010.65
2018-08-09T01:45:14.603Z,1010.6
2018-08-09T01:46:24.263Z,1010.64
2018-08-09T01:47:33.407Z,1010.65
2018-08-09T01:48:42.812Z,1010.68
2018-08-09T01:49:51.952Z,1010.68
2018-08-09T01:51:01.623Z,1010.69
2018-08-09T01:52:11.291Z,1010.68
2018-08-09T01:53:20.705Z,1010.72
2018-08-09T01:54:29.843Z,1010.71
2018-08-09T01:55:38.994Z,1010.67
2018-08-09T01:56:48.656Z,1010.67
2018-08-09T01:57:58.056Z,1010.63
2018-08-09T01:59:07.187Z,1010.59
2018-08-09T02:00:16.074Z,1010.6
2018-08-09T02:01:25.263Z,1010.54
2018-08-09T02:02:34.669Z,1010.53
2018-08-09T02:03:43.811Z,1010.47
2018-08-09T02:04:53.281Z,1010.47
2018-08-09T02:06:03.064Z,1010.43
2018-08-09T02:07:12.464Z,1010.5
2018-08-09T02:08:22.151Z,1010.47
2018-08-09T02:09:31.305Z,1010.49
2018-08-09T02:10:40.706Z,1010.52
2018-08-09T02:11:49.870Z,1010.54
2018-08-09T02:12:59.290Z,1010.45
2018-08-09T02:14:08.445Z,1010.53
2018-08-09T02:15:18.389Z,1010.56
2018-08-09T02:16:27.538Z,1010.52
2018-08-09T02:17:36.688Z,1010.47
2018-08-09T02:18:46.106Z,1010.47
2018-08-09T02:19:55.512Z,1010.46
2018-08-09T02:21:04.924Z,1010.41
2018-08-09T02:22:14.066Z,1010.4
2018-08-09T02:23:22.970Z,1010.34
2018-08-09T02:24:32.127Z,1010.33
2018-08-09T02:25:41.532Z,1010.32
2018-08-09T02:26:50.681Z,1010.25
2018-08-09T02:27:59.833Z,1010.22
2018-08-09T02:29:09.486Z,1010.19
2018-08-09T02:30:18.887Z,1010.17
2018-08-09T02:31:28.800Z,1010.11
2018-08-09T02:32:38.737Z,1010.08
2018-08-09T02:33:47.631Z,1010.05
2018-08-09T02:34:57.028Z,1010.05
2018-08-09T02:36:06.710Z,1010.09
2018-08-09T02:37:16.639Z,1010.05
2018-08-09T02:38:26.054Z,1010.01
2018-08-09T02:39:35.485Z,1009.98
2018-08-09T02:40:44.888Z,1009.98
2018-08-09T02:41:54.302Z,1009.96
2018-08-09T02:43:03.712Z,1009.98
2018-08-09T02:44:13.120Z,1009.95
2018-08-09T02:45:22.272Z,1009.94
2018-08-09T02:46:31.673Z,1009.93
2018-08-09T02:47:41.652Z,1009.93
2018-08-09T02:48:51.576Z,1009.89
2018-08-09T02:50:01.280Z,1009.89
2018-08-09T02:51:10.947Z,1009.84
2018-08-09T02:52:20.368Z,1009.8
2018-08-09T02:53:29.509Z,1009.77
2018-08-09T02:54:38.659Z,1009.73
2018-08-09T02:55:48.323Z,1009.78
2018-08-09T02:56:57.739Z,1009.77
2018-08-09T02:58:06.888Z,1009.82
2018-08-09T02:59:16.038Z,1009.79
2018-08-09T03:00:24.942Z,1009.81
2018-08-09T03:01:34.616Z,1009.83
2018-08-09T03:02:44.024Z,1009.82
2018-08-09T03:03:53.698Z,1009.84
2018-08-09T03:05:03.629Z,1009.88
2018-08-09T03:06:12.785Z,1009.86
2018-08-09T03:07:22.207Z,1009.86
2018-08-09T03:08:32.213Z,1009.86
2018-08-09T03:09:41.885Z,1009.85
2018-08-09T03:10:51.301Z,1009.89
2018-08-09T03:12:01.216Z,1009.9
2018-08-09T03:13:10.892Z,1009.86
2018-08-09T03:14:20.803Z,1009.86
2018-08-09T03:15:30.476Z,1009.87
2018-08-09T03:16:40.136Z,1009.83
2018-08-09T03:17:49.527Z,1009.84
2018-08-09T03:18:58.937Z,1009.85
2018-08-09T03:20:08.603Z,1009.84
2018-08-09T03:21:17.246Z,1009.85
2018-08-09T03:22:26.387Z,1009.89
2018-08-09T03:23:35.802Z,1009.9
2018-08-09T03:24:45.222Z,1009.85
2018-08-09T03:25:54.646Z,1009.91
2018-08-09T03:27:03.807Z,1009.87
2018-08-09T03:28:12.947Z,1009.86
2018-08-09T03:29:22.351Z,1009.84
2018-08-09T03:30:31.773Z,1009.81
2018-08-09T03:31:41.688Z,1009.79
2018-08-09T03:32:51.140Z,1009.76
2018-08-09T03:34:00.289Z,1009.78
2018-08-09T03:35:09.693Z,1009.75
2018-08-09T03:36:19.360Z,1009.8
2018-08-09T03:37:28.783Z,1009.83
2018-08-09T03:38:38.201Z,1009.77
2018-08-09T03:39:47.346Z,1009.78
2018-08-09T03:40:56.501Z,1009.77
2018-08-09T03:42:05.640Z,1009.75
2018-08-09T03:43:15.300Z,1009.71
2018-08-09T03:44:24.463Z,1009.73
2018-08-09T03:45:33.686Z,1009.67
2018-08-09T03:46:42.885Z,1009.7
2018-08-09T03:47:51.776Z,1009.69
2018-08-09T03:49:00.931Z,1009.72
2018-08-09T03:50:10.364Z,1009.75
2018-08-09T03:51:19.760Z,1009.75
2018-08-09T03:52:28.901Z,1009.79
2018-08-09T03:53:38.564Z,1009.8
2018-08-09T03:54:47.969Z,1009.83
2018-08-09T03:55:56.857Z,1009.9
2018-08-09T03:57:06.008Z,1009.95
2018-08-09T03:58:15.184Z,1009.91
2018-08-09T03:59:24.806Z,1009.96
2018-08-09T04:00:34.534Z,1009.97
2018-08-09T04:01:44.216Z,1009.92
2018-08-09T04:02:53.618Z,1009.88
2018-08-09T04:04:03.032Z,1009.88
2018-08-09T04:05:12.440Z,1009.79
2018-08-09T04:06:21.331Z,1009.75
2018-08-09T04:07:29.964Z,1009.69
2018-08-09T04:08:39.179Z,1009.69
2018-08-09T04:09:48.831Z,1009.66
2018-08-09T04:10:58.488Z,1009.7
2018-08-09T04:12:08.214Z,1009.69
2018-08-09T04:13:18.041Z,1009.7
2018-08-09T04:14:26.929Z,1009.77
2018-08-09T04:15:35.824Z,1009.79
2018-08-09T04:16:45.501Z,1009.83
2018-08-09T04:17:54.148Z,1009.86
2018-08-09T04:19:03.642Z,1009.89
2018-08-09T04:20:12.525Z,1009.84
2018-08-09T04:21:21.979Z,1009.83
2018-08-09T04:22:31.132Z,1009.77
2018-08-09T04:23:40.538Z,1009.71
2018-08-09T04:24:49.938Z,1009.66
2018-08-09T04:25:59.595Z,1009.62
2018-08-09T04:27:09.000Z,1009.59
2018-08-09T04:28:18.148Z,1009.56
2018-08-09T04:29:27.562Z,1009.57
2018-08-09T04:30:36.471Z,1009.51
2018-08-09T04:31:46.185Z,1009.54
2018-08-09T04:32:55.853Z,1009.47
2018-08-09T04:34:05.083Z,1009.47
2018-08-09T04:35:14.746Z,1009.46
2018-08-09T04:36:24.169Z,1009.44
2018-08-09T04:37:32.804Z,1009.39
2018-08-09T04:38:42.208Z,1009.37
2018-08-09T04:39:51.905Z,1009.36
2018-08-09T04:41:01.048Z,1009.44
2018-08-09T04:42:10.449Z,1009.47
2018-08-09T04:43:19.337Z,1009.52
2018-08-09T04:44:28.732Z,1009.53
2018-08-09T04:45:37.362Z,1009.63
2018-08-09T04:46:46.524Z,1009.65
2018-08-09T04:47:55.678Z,1009.65
2018-08-09T04:49:04.580Z,1009.65
2018-08-09T04:50:14.336Z,1009.6
2018-08-09T04:51:24.023Z,1009.64
2018-08-09T04:52:33.681Z,1009.66
2018-08-09T04:53:43.612Z,1009.64
2018-08-09T04:54:52.765Z,1009.6
2018-08-09T04:56:02.677Z,1009.53
2018-08-09T04:57:12.099Z,1009.44
2018-08-09T04:58:20.725Z,1009.36
2018-08-09T04:59:31.110Z,1009.37
2018-08-09T05:00:40.523Z,1009.33
2018-08-09T05:01:49.687Z,1009.35
2018-08-09T05:02:59.355Z,1009.37
2018-08-09T05:04:09.033Z,1009.4
2018-08-09T05:05:18.450Z,1009.45
2018-08-09T05:06:27.337Z,1009.5
2018-08-09T05:07:36.486Z,1009.57
2018-08-09T05:08:45.895Z,1009.55
2018-08-09T05:09:54.791Z,1009.47
2018-08-09T05:11:03.943Z,1009.41
2018-08-09T05:12:13.100Z,1009.41
2018-08-09T05:13:22.251Z,1009.45
2018-08-09T05:14:31.662Z,1009.36
2018-08-09T05:15:40.572Z,1009.38
2018-08-09T05:16:50.298Z,1009.41
2018-08-09T05:17:59.197Z,1009.41
2018-08-09T05:19:08.738Z,1009.47
2018-08-09T05:20:17.312Z,1009.42
2018-08-09T05:21:26.222Z,1009.4
2018-08-09T05:22:35.617Z,1009.45
2018-08-09T05:23:44.846Z,1009.46
2018-08-09T05:24:54.252Z,1009.45
2018-08-09T05:26:03.935Z,1009.46
2018-08-09T05:27:12.573Z,1009.45
2018-08-09T05:28:21.468Z,1009.45
2018-08-09T05:29:30.611Z,1009.43
2018-08-09T05:30:40.284Z,1009.4
2018-08-09T05:31:49.694Z,1009.33
2018-08-09T05:32:59.098Z,1009.31
2018-08-09T05:34:08.378Z,1009.24
2018-08-09T05:35:18.473Z,1009.22
2018-08-09T05:36:27.892Z,1009.15
2018-08-09T05:37:37.051Z,1009.07
2018-08-09T05:38:46.469Z,1009.06
2018-08-09T05:39:55.626Z,1008.98
2018-08-09T05:41:05.315Z,1008.95
2018-08-09T05:42:14.497Z,1008.93
2018-08-09T05:43:23.924Z,1008.91
2018-08-09T05:44:33.086Z,1008.92
2018-08-09T05:45:42.780Z,1008.9
2018-08-09T05:46:52.466Z,1008.9
2018-08-09T05:48:01.921Z,1008.9
2018-08-09T05:49:11.082Z,1008.92
2018-08-09T05:50:20.599Z,1008.97
2018-08-09T05:51:29.757Z,1009
2018-08-09T05:52:39.189Z,1009.03
2018-08-09T05:53:49.782Z,1009
2018-08-09T05:54:58.685Z,1009
2018-08-09T05:56:08.617Z,1009.03
2018-08-09T05:57:18.039Z,1009.01
2018-08-09T05:58:27.025Z,1009.03
2018-08-09T05:59:36.347Z,1009.02
2018-08-09T06:00:46.023Z,1009.03
2018-08-09T06:01:55.254Z,1008.99
2018-08-09T06:03:04.684Z,1008.96
2018-08-09T06:04:13.624Z,1008.95
2018-08-09T06:05:23.317Z,1008.91
2018-08-09T06:06:32.785Z,1008.84
2018-08-09T06:07:42.201Z,1008.75
2018-08-09T06:08:51.360Z,1008.79
2018-08-09T06:10:00.780Z,1008.79
2018-08-09T06:11:10.461Z,1008.8
2018-08-09T06:12:19.625Z,1008.8
2018-08-09T06:13:29.365Z,1008.77
2018-08-09T06:14:39.014Z,1008.77
2018-08-09T06:15:48.426Z,1008.71
2018-08-09T06:16:57.604Z,1008.72
2018-08-09T06:18:07.022Z,1008.66
2018-08-09T06:19:16.746Z,1008.64
2018-08-09T06:20:26.427Z,1008.62
2018-08-09T06:21:35.584Z,1008.65
2018-08-09T06:22:44.751Z,1008.7
2018-08-09T06:23:54.183Z,1008.71
2018-08-09T06:25:03.336Z,1008.74
2018-08-09T06:26:12.527Z,1008.73
2018-08-09T06:27:22.412Z,1008.7
2018-08-09T06:28:31.614Z,1008.69
2018-08-09T06:29:41.514Z,1008.67
2018-08-09T06:30:50.939Z,1008.66
2018-08-09T06:32:00.123Z,1008.6
2018-08-09T06:33:09.286Z,1008.54
2018-08-09T06:34:18.963Z,1008.52
2018-08-09T06:35:28.633Z,1008.48
2018-08-09T06:36:37.817Z,1008.43
2018-08-09T06:37:47.223Z,1008.45
2018-08-09T06:38:56.378Z,1008.47
2018-08-09T06:40:05.285Z,1008.46
2018-08-09T06:41:14.967Z,1008.39
2018-08-09T06:42:24.384Z,1008.39
2018-08-09T06:43:33.804Z,1008.34
2018-08-09T06:44:43.228Z,1008.3
2018-08-09T06:45:52.903Z,1008.3
2018-08-09T06:47:02.324Z,1008.29
2018-08-09T06:48:11.478Z,1008.3
2018-08-09T06:49:20.629Z,1008.27
2018-08-09T06:50:29.799Z,1008.28
2018-08-09T06:51:39.000Z,1008.23
2018-08-09T06:52:48.185Z,1008.2
2018-08-09T06:53:57.856Z,1008.18
2018-08-09T06:55:07.269Z,1008.17
2018-08-09T06:56:17.003Z,1008.2
2018-08-09T06:57:27.288Z,1008.17
2018-08-09T06:58:36.709Z,1008.14
2018-08-09T06:59:46.681Z,1008.07
2018-08-09T07:00:55.832Z,1008.03
2018-08-09T07:02:05.261Z,1008.04
2018-08-09T07:03:14.683Z,1008.09
2018-08-09T07:04:23.581Z,1008.08
2018-08-09T07:05:33.270Z,1008.08
2018-08-09T07:06:42.176Z,1008.07
2018-08-09T07:07:51.339Z,1008.08
2018-08-09T07:09:01.028Z,1008.06
2018-08-09T07:10:10.742Z,1008.07
2018-08-09T07:11:19.906Z,1008.08
2018-08-09T07:12:28.815Z,1008.11
2018-08-09T07:13:38.513Z,1008.05
2018-08-09T07:14:47.676Z,1008.13
2018-08-09T07:15:56.840Z,1008.1
2018-08-09T07:17:06.247Z,1008.11
2018-08-09T07:18:15.164Z,1008.11
2018-08-09T07:19:24.579Z,1008.01
2018-08-09T07:20:33.500Z,1008.02
2018-08-09T07:21:42.986Z,1008.03
2018-08-09T07:22:52.093Z,1008.08
2018-08-09T07:24:01.944Z,1008.01
2018-08-09T07:25:10.846Z,1008.03
2018-08-09T07:26:20.375Z,1008.02
2018-08-09T07:27:30.337Z,1008.04
2018-08-09T07:28:39.790Z,1008
2018-08-09T07:29:49.469Z,1008.07
2018-08-09T07:30:58.622Z,1008.05
2018-08-09T07:32:07.803Z,1008.02
2018-08-09T07:33:17.240Z,1008.05
2018-08-09T07:34:26.148Z,1008.03
2018-08-09T07:35:35.042Z,1008
2018-08-09T07:36:44.229Z,1008.01
2018-08-09T07:37:53.133Z,1008.02
2018-08-09T07:39:02.583Z,1008
2018-08-09T07:40:12.031Z,1008.03
2018-08-09T07:41:21.965Z,1008.03
2018-08-09T07:42:31.380Z,1008.04
2018-08-09T07:43:40.549Z,1008.03
2018-08-09T07:44:50.222Z,1008.04
2018-08-09T07:45:59.640Z,1008.05
2018-08-09T07:47:09.047Z,1008.08
2018-08-09T07:48:18.501Z,1008.01
2018-08-09T07:49:27.763Z,1008.03
2018-08-09T07:50:37.211Z,1008.03
2018-08-09T07:51:46.382Z,1008.04
2018-08-09T07:52:56.052Z,1008.04
2018-08-09T07:54:05.474Z,1008.03
2018-08-09T07:55:14.719Z,1007.99
2018-08-09T07:56:24.411Z,1007.97
2018-08-09T07:57:33.824Z,1007.89
2018-08-09T07:58:43.228Z,1007.84
2018-08-09T07:59:52.639Z,1007.81
2018-08-09T08:01:01.565Z,1007.74
2018-08-09T08:02:10.773Z,1007.77
2018-08-09T08:03:20.242Z,1007.8
2018-08-09T08:04:29.407Z,1007.82
2018-08-09T08:05:39.119Z,1007.73
2018-08-09T08:06:49.054Z,1007.7
2018-08-09T08:07:58.276Z,1007.76
2018-08-09T08:09:08.221Z,1007.7
2018-08-09T08:10:17.473Z,1007.65
2018-08-09T08:11:26.941Z,1007.7
2018-08-09T08:12:36.119Z,1007.62
2018-08-09T08:13:45.532Z,1007.66
2018-08-09T08:14:54.705Z,1007.66
2018-08-09T08:16:04.773Z,1007.61
2018-08-09T08:17:13.690Z,1007.63
2018-08-09T08:18:23.114Z,1007.55
2018-08-09T08:19:32.270Z,1007.56
2018-08-09T08:20:41.983Z,1007.51
2018-08-09T08:21:52.353Z,1007.52
2018-08-09T08:23:02.065Z,1007.53
2018-08-09T08:24:11.236Z,1007.55
2018-08-09T08:25:20.655Z,1007.49
2018-08-09T08:26:29.552Z,1007.44
2018-08-09T08:27:39.101Z,1007.4
2018-08-09T08:28:48.821Z,1007.41
2018-08-09T08:29:57.731Z,1007.36
2018-08-09T08:31:06.649Z,1007.32
2018-08-09T08:32:15.841Z,1007.3
2018-08-09T08:33:25.550Z,1007.32
2018-08-09T08:34:34.769Z,1007.35
2018-08-09T08:35:45.016Z,1007.33
2018-08-09T08:36:54.206Z,1007.36
2018-08-09T08:38:03.901Z,1007.37
2018-08-09T08:39:13.317Z,1007.35
2018-08-09T08:40:22.233Z,1007.28
2018-08-09T08:41:31.758Z,1007.26
2018-08-09T08:42:42.491Z,1007.23
2018-08-09T08:43:51.507Z,1007.19
2018-08-09T08:45:00.441Z,1007.13
2018-08-09T08:46:09.596Z,1007.11
2018-08-09T08:47:19.039Z,1007.14
2018-08-09T08:48:28.657Z,1007.12
2018-08-09T08:49:38.318Z,1007.11
2018-08-09T08:50:47.736Z,1007.11
2018-08-09T08:51:57.215Z,1007.14
2018-08-09T08:53:06.359Z,1007.15
2018-08-09T08:54:16.310Z,1007.22
2018-08-09T08:55:25.483Z,1007.23
2018-08-09T08:56:35.151Z,1007.18
2018-08-09T08:57:44.308Z,1007.2
2018-08-09T08:58:53.514Z,1007.2
2018-08-09T09:00:02.173Z,1007.15
2018-08-09T09:01:11.647Z,1007.17
2018-08-09T09:02:21.329Z,1007.1
2018-08-09T09:03:30.231Z,1007.03
2018-08-09T09:04:39.392Z,1007.01
2018-08-09T09:05:48.561Z,1006.96
2018-08-09T09:06:57.769Z,1006.87
2018-08-09T09:08:07.067Z,1006.84
2018-08-09T09:09:16.485Z,1006.8
2018-08-09T09:10:25.910Z,1006.79
2018-08-09T09:11:35.372Z,1006.74
2018-08-09T09:12:44.771Z,1006.73
2018-08-09T09:13:53.694Z,1006.7
2018-08-09T09:15:03.118Z,1006.66
2018-08-09T09:16:12.554Z,1006.6
2018-08-09T09:17:21.969Z,1006.57
2018-08-09T09:18:31.441Z,1006.58
2018-08-09T09:19:40.091Z,1006.57
2018-08-09T09:20:49.776Z,1006.57
2018-08-09T09:21:58.685Z,1006.61
2018-08-09T09:23:08.124Z,1006.58
2018-08-09T09:24:17.569Z,1006.51
2018-08-09T09:25:26.983Z,1006.43
2018-08-09T09:26:36.671Z,1006.41
2018-08-09T09:27:46.583Z,1006.42
2018-08-09T09:28:55.760Z,1006.42
2018-08-09T09:30:04.682Z,1006.31
2018-08-09T09:31:14.337Z,1006.28
2018-08-09T09:32:24.001Z,1006.21
2018-08-09T09:33:33.938Z,1006.13
2018-08-09T09:34:42.834Z,1006.07
2018-08-09T09:35:51.786Z,1005.96
2018-08-09T09:37:00.950Z,1005.92
2018-08-09T09:38:10.369Z,1005.8
2018-08-09T09:39:19.031Z,1005.77
2018-08-09T09:40:27.694Z,1005.64
2018-08-09T09:41:36.863Z,1005.66
2018-08-09T09:42:46.027Z,1005.52
2018-08-09T09:43:55.446Z,1005.47
2018-08-09T09:45:04.864Z,1005.49
2018-08-09T09:46:13.820Z,1005.44
2018-08-09T09:47:23.236Z,1005.43
2018-08-09T09:48:32.672Z,1005.45
2018-08-09T09:49:42.366Z,1005.42
2018-08-09T09:50:52.300Z,1005.4
2018-08-09T09:52:02.003Z,1005.25
2018-08-09T09:53:10.893Z,1005.28
2018-08-09T09:54:19.537Z,1005.2
2018-08-09T09:55:28.964Z,1005.12
2018-08-09T09:56:37.856Z,1005.06
2018-08-09T09:57:47.535Z,1005.05
2018-08-09T09:58:56.987Z,1004.98
2018-08-09T10:00:06.185Z,1004.94
2018-08-09T10:01:15.346Z,1004.9
2018-08-09T10:02:24.536Z,1004.88
2018-08-09T10:03:33.691Z,1004.82
2018-08-09T10:04:42.599Z,1004.83
2018-08-09T10:05:52.015Z,1004.77
2018-08-09T10:07:01.755Z,1004.81
2018-08-09T10:08:12.190Z,1004.72
2018-08-09T10:09:21.117Z,1004.72
2018-08-09T10:10:30.621Z,1004.65
2018-08-09T10:11:40.487Z,1004.68
2018-08-09T10:12:50.256Z,1004.7
2018-08-09T10:13:59.698Z,1004.65
2018-08-09T10:15:09.407Z,1004.66
2018-08-09T10:16:18.074Z,1004.66
2018-08-09T10:17:27.768Z,1004.69
2018-08-09T10:18:37.197Z,1004.72
2018-08-09T10:19:46.735Z,1004.73
2018-08-09T10:20:56.630Z,1004.74
2018-08-09T10:22:06.068Z,1004.73
2018-08-09T10:23:15.370Z,1004.74
2018-08-09T10:24:24.544Z,1004.72
2018-08-09T10:25:33.703Z,1004.68
2018-08-09T10:26:42.877Z,1004.63
2018-08-09T10:27:52.031Z,1004.66
2018-08-09T10:29:01.189Z,1004.58
2018-08-09T10:30:10.642Z,1004.77
2018-08-09T10:31:19.844Z,1004.67
2018-08-09T10:32:29.003Z,1004.68
2018-08-09T10:33:38.434Z,1004.58
2018-08-09T10:34:48.395Z,1004.54
2018-08-09T10:35:57.830Z,1004.61
2018-08-09T10:37:07.598Z,1004.58
2018-08-09T10:38:17.002Z,1004.59
2018-08-09T10:39:26.175Z,1004.56
2018-08-09T10:40:35.601Z,1004.51
2018-08-09T10:41:44.518Z,1004.49
2018-08-09T10:42:54.214Z,1004.44
2018-08-09T10:44:03.642Z,1004.49
2018-08-09T10:45:13.052Z,1004.4
2018-08-09T10:46:22.729Z,1004.47
2018-08-09T10:47:32.168Z,1004.45
2018-08-09T10:48:41.064Z,1004.37
2018-08-09T10:49:50.740Z,1004.32
2018-08-09T10:51:00.152Z,1004.31
2018-08-09T10:52:09.318Z,1004.2
2018-08-09T10:53:18.222Z,1004.15
2018-08-09T10:54:27.390Z,1004.13
2018-08-09T10:55:36.903Z,1004.07
2018-08-09T10:56:47.052Z,1003.92
2018-08-09T10:57:56.214Z,1003.87
2018-08-09T10:59:05.649Z,1003.79
2018-08-09T11:00:15.102Z,1003.77
2018-08-09T11:01:24.569Z,1003.72
2018-08-09T11:02:33.728Z,1003.69
2018-08-09T11:03:42.669Z,1003.66
2018-08-09T11:04:51.311Z,1003.63
2018-08-09T11:06:00.765Z,1003.64
2018-08-09T11:07:10.188Z,1003.65
2018-08-09T11:08:19.335Z,1003.66
2018-08-09T11:09:28.496Z,1003.67
2018-08-09T11:10:37.660Z,1003.71
2018-08-09T11:11:46.848Z,1003.64
2018-08-09T11:12:56.015Z,1003.66
2018-08-09T11:14:05.691Z,1003.72
2018-08-09T11:15:14.873Z,1003.74
2018-08-09T11:16:24.042Z,1003.74
2018-08-09T11:17:32.983Z,1003.75
2018-08-09T11:18:42.410Z,1003.79
2018-08-09T11:19:51.558Z,1003.7
2018-08-09T11:21:00.454Z,1003.76
2018-08-09T11:22:09.905Z,1003.76
2018-08-09T11:23:19.065Z,1003.76
2018-08-09T11:24:27.961Z,1003.67
2018-08-09T11:25:37.635Z,1003.66
2018-08-09T11:26:46.798Z,1003.61
2018-08-09T11:27:56.277Z,1003.51
2018-08-09T11:29:04.918Z,1003.44
2018-08-09T11:30:13.571Z,1003.41
2018-08-09T11:31:23.012Z,1003.36
2018-08-09T11:32:32.185Z,1003.32
2018-08-09T11:33:41.377Z,1003.3
2018-08-09T11:34:50.796Z,1003.33
2018-08-09T11:35:59.964Z,1003.36
2018-08-09T11:37:09.419Z,1003.35
2018-08-09T11:38:18.601Z,1003.25
2018-08-09T11:39:28.017Z,1003.19
2018-08-09T11:40:37.710Z,1003.14
2018-08-09T11:41:46.885Z,1003.06
2018-08-09T11:42:56.139Z,1003.06
2018-08-09T11:44:06.063Z,1003
2018-08-09T11:45:15.489Z,1003.08
2018-08-09T11:46:24.915Z,1003
2018-08-09T11:47:34.335Z,1003.05
2018-08-09T11:48:44.007Z,1002.93
2018-08-09T11:49:53.169Z,1002.94
2018-08-09T11:51:02.091Z,1002.88
2018-08-09T11:52:11.104Z,1002.85
2018-08-09T11:53:20.273Z,1002.75
2018-08-09T11:54:29.428Z,1002.73
2018-08-09T11:55:38.850Z,1002.73
2018-08-09T11:56:48.651Z,1002.76
2018-08-09T11:57:58.109Z,1002.68
2018-08-09T11:59:06.807Z,1002.75
2018-08-09T12:00:15.986Z,1002.67
2018-08-09T12:01:25.470Z,1002.71
2018-08-09T12:02:35.811Z,1002.68
2018-08-09T12:03:44.985Z,1002.58
2018-08-09T12:04:54.440Z,1002.58
2018-08-09T12:06:03.864Z,1002.61
2018-08-09T12:07:13.330Z,1002.66
2018-08-09T12:08:22.686Z,1002.77
2018-08-09T12:09:31.960Z,1002.71
2018-08-09T12:10:41.488Z,1002.8
2018-08-09T12:11:50.438Z,1002.75
2018-08-09T12:13:00.188Z,1002.71
2018-08-09T12:14:09.355Z,1002.73
2018-08-09T12:15:18.566Z,1002.79
2018-08-09T12:16:28.350Z,1002.84
2018-08-09T12:17:37.301Z,1002.87
2018-08-09T12:18:46.977Z,1002.83
2018-08-09T12:19:56.424Z,1002.88
2018-08-09T12:21:06.478Z,1002.85
2018-08-09T12:22:16.433Z,1002.91
2018-08-09T12:23:26.115Z,1002.94
2018-08-09T12:24:35.300Z,1002.99
2018-08-09T12:25:43.967Z,1002.99
2018-08-09T12:26:53.692Z,1002.97
2018-08-09T12:28:02.976Z,1002.97
2018-08-09T12:29:12.139Z,1003
2018-08-09T12:30:21.333Z,1002.98
2018-08-09T12:31:31.169Z,1002.95
2018-08-09T12:32:40.062Z,1002.92
2018-08-09T12:33:49.748Z,1002.99
2018-08-09T12:34:58.892Z,1002.88
2018-08-09T12:36:08.311Z,1002.96
2018-08-09T12:37:17.220Z,1002.8
2018-08-09T12:38:26.893Z,1002.87
2018-08-09T12:39:36.593Z,1002.83
2018-08-09T12:40:45.738Z,1002.86
2018-08-09T12:41:55.158Z,1002.79
2018-08-09T12:43:04.313Z,1002.86
2018-08-09T12:44:12.950Z,1002.85
2018-08-09T12:45:21.682Z,1002.9
2018-08-09T12:46:31.276Z,1002.86
2018-08-09T12:47:40.435Z,1002.82
2018-08-09T12:48:49.598Z,1002.92
2018-08-09T12:49:59.010Z,1002.86
2018-08-09T12:51:08.437Z,1002.94
2018-08-09T12:52:17.861Z,1002.96
2018-08-09T12:53:27.267Z,1003.01
2018-08-09T12:54:36.938Z,1003.02
2018-08-09T12:55:46.104Z,1002.98
2018-08-09T12:56:54.993Z,1003.15
2018-08-09T12:58:03.663Z,1003.11
2018-08-09T12:59:13.093Z,1003.06
2018-08-09T13:00:22.303Z,1003.09
2018-08-09T13:01:31.766Z,1003.1
2018-08-09T13:02:41.437Z,1003.16
2018-08-09T13:03:50.597Z,1003.25
2018-08-09T13:04:59.768Z,1003.27
2018-08-09T13:06:09.188Z,1003.32
2018-08-09T13:07:18.879Z,1003.32
2018-08-09T13:08:28.092Z,1003.27
2018-08-09T13:09:37.308Z,1003.29
2018-08-09T13:10:46.737Z,1003.3
2018-08-09T13:11:56.177Z,1003.24
2018-08-09T13:13:05.851Z,1003.27
2018-08-09T13:14:14.754Z,1003.36
2018-08-09T13:15:23.933Z,1003.41
2018-08-09T13:16:33.360Z,1003.4
2018-08-09T13:17:42.541Z,1003.5
2018-08-09T13:18:51.692Z,1003.63
2018-08-09T13:20:01.363Z,1003.67
2018-08-09T13:21:10.512Z,1003.7
2018-08-09T13:22:19.927Z,1003.81
2018-08-09T13:23:29.391Z,1003.85
2018-08-09T13:24:38.882Z,1003.89
2018-08-09T13:25:48.295Z,1003.94
2018-08-09T13:26:57.453Z,1004.01
2018-08-09T13:28:07.135Z,1003.99
2018-08-09T13:29:16.552Z,1004.04
2018-08-09T13:30:25.210Z,1004.08
2018-08-09T13:31:34.895Z,1004.12
2018-08-09T13:32:44.565Z,1004.16
2018-08-09T13:33:53.722Z,1004.16
2018-08-09T13:35:02.877Z,1004.24
2018-08-09T13:36:12.550Z,1004.22
2018-08-09T13:37:21.953Z,1004.32
2018-08-09T13:38:31.112Z,1004.28
2018-08-09T13:39:40.010Z,1004.26
2018-08-09T13:40:49.936Z,1004.24
2018-08-09T13:41:59.341Z,1004.26
2018-08-09T13:43:08.763Z,1004.3
2018-08-09T13:44:18.292Z,1004.18
2018-08-09T13:45:27.710Z,1004.22
2018-08-09T13:46:36.932Z,1004.18
2018-08-09T13:47:47.190Z,1004.26
2018-08-09T13:48:56.618Z,1004.2
2018-08-09T13:50:05.617Z,1004.21
2018-08-09T13:51:14.794Z,1004.17
2018-08-09T13:52:24.491Z,1004.16
2018-08-09T13:53:34.170Z,1004.17
2018-08-09T13:54:43.336Z,1004.19
2018-08-09T13:55:53.274Z,1004.13
2018-08-09T13:57:02.205Z,1004.18
2018-08-09T13:58:11.388Z,1004.2
2018-08-09T13:59:20.327Z,1004.18
2018-08-09T14:00:29.492Z,1004.11
2018-08-09T14:01:39.260Z,1004.15
2018-08-09T14:02:48.682Z,1004.13